Time;durP1;ratioP1;P1;durP2;ratioP2;P2;SDS_P1;SDS_P2;PMS_P1;PMS_P2;Temp;Humidity;BMP_temperature;BMP_pressure;BME280_temperature;BME280_humidity;BME280_pressure;Samples;Min_cycle;Max_cycle;Signal;HPM_P1;HPM_P2
2022/04/27 00:00:56;;;;;;;6.88;3.47;;;4.70;1.00;;;5.70;81.66;99248.59;5019077;28;119681;-69
2022/04/27 00:03:24;;;;;;;7.97;3.63;;;4.60;1.00;;;5.64;82.16;99243.50;5017762;28;129904;-68
2022/04/27 00:05:53;;;;;;;6.85;3.40;;;4.60;1.00;;;5.59;82.60;99238.97;5018893;28;130283;-67
2022/04/27 00:08:21;;;;;;;6.65;3.90;;;4.60;1.00;;;5.60;82.52;99240.59;5019259;28;119783;-68
2022/04/27 00:10:50;;;;;;;6.35;3.40;;;4.60;1.00;;;5.42;84.01;99254.75;5018996;27;119437;-69
2022/04/27 00:13:18;;;;;;;6.25;3.03;;;4.60;1.00;;;5.51;83.88;99247.69;5018769;28;129888;-70
2022/04/27 00:15:46;;;;;;;6.53;3.17;;;4.60;1.00;;;5.55;83.85;99249.53;5018636;28;129547;-71
2022/04/27 00:18:16;;;;;;;6.28;3.30;;;4.60;1.00;;;5.63;83.79;99256.19;5019010;28;119823;-69
2022/04/27 00:20:44;;;;;;;7.00;3.30;;;4.60;1.00;;;5.65;83.89;99253.19;5019372;28;119317;-70
2022/04/27 00:23:13;;;;;;;6.78;3.20;;;4.70;1.00;;;5.62;84.10;99257.25;5020610;28;130428;-70
2022/04/27 00:25:41;;;;;;;9.10;5.13;;;4.80;1.00;;;5.68;84.23;99253.44;5018445;28;129476;-67
2022/04/27 00:28:09;;;;;;;7.95;4.65;;;4.80;1.00;;;5.71;84.25;99257.44;5017485;28;122467;-70
2022/04/27 00:30:38;;;;;;;5.75;3.00;;;4.90;1.00;;;5.66;84.63;99266.38;5003792;28;121770;-70
2022/04/27 00:33:07;;;;;;;7.25;3.30;;;5.00;1.00;;;5.72;84.30;99265.25;5018563;28;130013;-69
2022/04/27 00:35:38;;;;;;;6.18;3.28;;;5.00;1.00;;;5.67;85.14;99278.75;5003391;28;129108;-70
2022/04/27 00:38:07;;;;;;;8.52;3.35;;;5.00;1.00;;;5.71;84.89;99273.59;5003685;28;118564;-70
2022/04/27 00:40:35;;;;;;;5.45;3.10;;;5.10;1.00;;;5.80;84.55;99282.66;5000401;28;119912;-68
2022/04/27 00:43:03;;;;;;;5.18;3.00;;;5.10;1.00;;;5.84;83.97;99281.00;4986661;28;129133;-67
2022/04/27 00:45:32;;;;;;;5.97;2.80;;;5.30;1.00;;;5.97;83.54;99287.66;5019561;28;129712;-69
2022/04/27 00:48:00;;;;;;;7.78;3.60;;;5.30;1.00;;;6.05;83.37;99283.53;5018505;28;120065;-66
2022/04/27 00:50:31;;;;;;;6.85;3.10;;;5.30;1.00;;;6.10;82.89;99281.56;5003567;28;119229;-67
2022/04/27 00:53:02;;;;;;;6.53;3.10;;;5.30;1.00;;;6.23;82.47;99295.44;5016808;28;129957;-68
2022/04/27 00:55:31;;;;;;;8.20;4.45;;;5.40;1.00;;;6.26;82.10;99294.84;5018081;28;130429;-66
2022/04/27 00:58:00;;;;;;;9.38;3.53;;;5.50;1.00;;;6.31;81.63;99297.50;5003553;28;119199;-67
2022/04/27 01:00:29;;;;;;;7.00;3.42;;;5.50;1.00;;;6.32;81.33;99298.31;5018242;28;119844;-67
2022/04/27 01:02:57;;;;;;;7.63;3.28;;;5.50;1.00;;;6.36;81.20;99288.53;5003086;28;129446;-66
2022/04/27 01:05:26;;;;;;;5.80;3.20;;;5.50;1.00;;;6.34;81.39;99305.00;4999752;28;130129;-66
2022/04/27 01:07:59;;;;;;;4.82;2.88;;;5.50;1.00;;;6.35;81.34;99293.13;4986520;28;118786;-68
2022/04/27 01:10:30;;;;;;;5.07;2.80;;;5.50;1.00;;;6.32;81.92;99304.47;4987061;28;119184;-66
2022/04/27 01:13:00;;;;;;;5.68;3.13;;;5.50;1.00;;;6.40;81.62;99300.34;5002813;28;129852;-67
2022/04/27 01:15:33;;;;;;;5.00;2.53;;;5.50;1.00;;;6.45;81.19;99311.88;5018046;28;129381;-67
2022/04/27 01:18:02;;;;;;;5.60;2.80;;;5.50;1.00;;;6.41;81.18;99297.38;5016716;28;122058;-66
2022/04/27 01:20:37;;;;;;;6.97;3.53;;;5.50;1.00;;;6.47;80.92;99304.31;5002885;28;123234;-69
2022/04/27 01:23:07;;;;;;;5.00;2.90;;;5.50;1.00;;;6.48;81.36;99308.63;4998599;28;130864;-67
2022/04/27 01:25:54;;;;;;;5.85;2.92;;;5.60;1.00;;;6.46;81.07;99309.97;5002601;28;128710;-68
2022/04/27 01:28:25;;;;;;;6.47;2.80;;;5.60;1.00;;;6.53;80.87;99304.22;5018055;28;120061;-68
2022/04/27 01:31:00;;;;;;;4.80;2.90;;;5.60;1.00;;;6.53;80.27;99298.84;5017842;28;120188;-67
2022/04/27 01:33:30;;;;;;;6.22;3.28;;;5.60;1.00;;;6.57;79.59;99294.47;4999363;28;130016;-67
2022/04/27 01:36:01;;;;;;;4.65;2.65;;;5.70;1.00;;;6.59;80.00;99306.59;5003258;28;129284;-68
2022/04/27 01:38:34;;;;;;;6.63;3.20;;;5.70;1.00;;;6.60;79.84;99296.59;5017940;28;120095;-68
2022/04/27 01:41:03;;;;;;;7.05;3.35;;;5.70;1.00;;;6.58;79.92;99307.69;5002745;28;119821;-70
2022/04/27 01:43:31;;;;;;;5.28;2.78;;;5.70;1.00;;;6.62;79.67;99297.09;5001148;28;129708;-68
2022/04/27 01:46:00;;;;;;;5.68;3.00;;;5.60;1.00;;;6.59;79.03;99303.06;5002113;28;129752;-68
2022/04/27 01:48:28;;;;;;;4.40;2.60;;;5.70;1.00;;;6.59;78.92;99308.47;5017530;28;119960;-67
2022/04/27 01:50:57;;;;;;;7.15;2.92;;;5.70;1.00;;;6.68;78.70;99305.94;5002527;28;119169;-67
2022/04/27 01:56:14;;;;;;;4.10;2.50;;;5.70;1.00;;;6.60;79.28;99302.78;5017367;28;129904;-68
2022/04/27 01:58:47;;;;;;;5.82;2.88;;;5.70;1.00;;;6.72;79.07;99296.97;5002791;28;118741;-68
2022/04/27 02:01:16;;;;;;;5.53;2.90;;;5.70;1.00;;;6.76;79.32;99302.59;5002839;28;120307;-68
2022/04/27 02:03:45;;;;;;;5.38;2.38;;;5.70;1.00;;;6.79;78.75;99308.22;5017038;28;131308;-66
2022/04/27 02:06:19;;;;;;;4.88;2.80;;;5.70;1.00;;;6.74;79.00;99310.19;5002157;28;129161;-67
2022/04/27 02:08:49;;;;;;;4.57;2.85;;;5.70;1.00;;;6.74;78.71;99308.28;5001029;28;121190;-67
2022/04/27 02:11:24;;;;;;;5.75;2.65;;;5.60;1.00;;;6.64;79.31;99316.50;5002418;28;121764;-68
2022/04/27 02:14:01;;;;;;;4.97;2.63;;;5.50;1.00;;;6.50;79.97;99316.41;5002030;28;129521;-68
2022/04/27 02:16:31;;;;;;;3.60;2.10;;;5.40;1.00;;;6.39;80.40;99321.13;4999034;28;129472;-66
2022/04/27 02:19:00;;;;;;;4.30;2.35;;;5.40;1.00;;;6.32;80.93;99323.34;5017207;28;120363;-67
2022/04/27 02:21:28;;;;;;;4.95;2.60;;;5.40;1.00;;;6.29;80.95;99313.16;5017403;28;119337;-67
2022/04/27 02:23:58;;;;;;;4.03;2.28;;;5.30;1.00;;;6.27;81.08;99318.81;5016963;28;129958;-66
2022/04/27 02:26:26;;;;;;;5.75;2.60;;;5.30;1.00;;;6.27;81.20;99318.03;4985886;28;129265;-67
2022/04/27 02:28:57;;;;;;;7.18;2.60;;;5.30;1.00;;;6.29;81.10;99323.94;5002044;28;119178;-67
2022/04/27 02:31:27;;;;;;;5.25;2.67;;;5.30;1.00;;;6.30;81.27;99322.84;5017317;28;119963;-67
2022/04/27 02:33:55;;;;;;;5.90;2.78;;;5.20;1.00;;;6.27;81.35;99318.03;4997728;28;129926;-68
2022/04/27 02:36:24;;;;;;;5.90;2.67;;;5.30;1.00;;;6.26;81.51;99322.63;4987750;28;129936;-66
2022/04/27 02:38:53;;;;;;;5.15;2.95;;;5.40;1.00;;;6.26;81.68;99324.50;5005683;28;119328;-67
2022/04/27 02:41:23;;;;;;;5.35;3.17;;;5.40;1.00;;;6.23;81.60;99333.16;5005285;28;122943;-69
2022/04/27 02:43:51;;;;;;;4.80;2.63;;;5.40;1.00;;;6.28;81.70;99333.13;5020007;28;131267;-67
2022/04/27 02:46:22;;;;;;;4.20;2.15;;;5.40;1.00;;;6.16;80.82;99332.72;5004183;28;130545;-66
2022/04/27 02:51:51;;;;;;;;;;;5.50;1.00;;;6.11;79.45;99337.06;5006008;28;119181;-67
2022/04/27 02:54:48;;;;;;;4.80;2.00;;;5.60;1.00;;;6.09;79.01;99350.03;5023164;28;130744;-67
2022/04/27 02:57:18;;;;;;;4.13;2.05;;;5.70;1.00;;;6.17;79.33;99345.06;5001629;28;129105;-67
2022/04/27 02:59:47;;;;;;;5.47;2.30;;;5.70;1.00;;;6.25;78.67;99345.28;5001060;28;123063;-69
2022/04/27 03:02:17;;;;;;;3.40;1.88;;;5.70;1.00;;;6.15;78.22;99352.66;5004971;28;122954;-66
2022/04/27 03:04:46;;;;;;;6.10;2.10;;;5.70;1.00;;;5.98;78.99;99353.09;5004856;28;129543;-66
2022/04/27 03:07:15;;;;;;;5.43;2.17;;;5.70;1.00;;;6.15;78.94;99358.84;5004798;28;129170;-67
2022/04/27 03:09:52;;;;;;;3.63;1.90;;;5.70;1.00;;;6.35;78.23;99362.41;5004812;28;119535;-68
2022/04/27 03:12:23;;;;;;;3.20;1.98;;;5.70;1.00;;;6.54;77.05;99365.97;5005110;28;119086;-67
2022/04/27 03:14:52;;;;;;;4.25;1.90;;;5.70;1.00;;;6.57;77.22;99364.59;5004805;28;130015;-67
2022/04/27 03:17:21;;;;;;;3.70;2.00;;;5.70;1.00;;;6.66;76.74;99374.44;5020106;28;130110;-65
2022/04/27 03:19:49;;;;;;;5.13;2.30;;;5.60;1.00;;;6.42;77.28;99377.16;5020271;28;120316;-67
2022/04/27 03:22:18;;;;;;;4.18;2.40;;;5.60;1.00;;;6.25;78.49;99380.31;5005156;28;119324;-68
2022/04/27 03:24:46;;;;;;;5.68;2.38;;;5.60;1.00;;;6.38;77.88;99378.81;5003335;28;130053;-67
2022/04/27 03:27:18;;;;;;;4.68;2.50;;;5.70;1.00;;;6.55;77.39;99383.75;4988032;28;128540;-67
2022/04/27 03:29:50;;;;;;;4.70;2.80;;;5.80;1.00;;;6.47;77.49;99393.28;5004752;28;120475;-66
2022/04/27 03:32:20;;;;;;;5.18;2.90;;;5.80;1.00;;;6.55;77.53;99393.75;5004741;28;118985;-67
2022/04/27 03:34:56;;;;;;;4.45;2.50;;;5.70;1.00;;;6.53;77.69;99390.50;5001376;28;129879;-67
2022/04/27 03:37:28;;;;;;;6.78;2.85;;;5.80;1.00;;;6.58;77.51;99398.56;5004498;28;129284;-68
2022/04/27 03:39:57;;;;;;;5.40;2.70;;;5.80;1.00;;;6.88;76.84;99391.19;5004876;28;119280;-67
2022/04/27 03:42:25;;;;;;;4.97;2.90;;;5.80;1.00;;;6.93;76.00;99393.81;5005054;28;118202;-66
2022/04/27 03:45:02;;;;;;;6.28;3.50;;;5.80;1.00;;;7.06;76.12;99409.31;5001393;28;130091;-69
2022/04/27 03:47:38;;;;;;;6.13;2.80;;;5.80;1.00;;;7.08;74.20;99417.09;5004419;28;105967;-69
2022/04/27 03:50:08;;;;;;;8.20;3.05;;;5.70;1.00;;;7.07;74.51;99410.88;5003362;28;121668;-67
2022/04/27 03:52:48;;;;;;;5.88;2.97;;;5.90;1.00;;;6.84;74.50;99413.34;5004393;28;121978;-70
2022/04/27 03:55:16;;;;;;;5.15;2.72;;;5.90;1.00;;;6.88;74.00;99418.16;5004255;28;130145;-69
2022/04/27 03:57:48;;;;;;;5.00;2.55;;;5.90;1.00;;;6.88;73.87;99418.16;5001323;28;129894;-67
2022/04/27 04:00:20;;;;;;;4.75;2.30;;;6.00;1.00;;;7.23;72.87;99430.41;5004724;28;118963;-68
2022/04/27 04:02:53;;;;;;;5.65;2.47;;;6.10;1.00;;;7.32;72.42;99435.94;5004486;28;119706;-69
2022/04/27 04:05:22;;;;;;;5.65;2.65;;;6.10;1.00;;;7.52;71.80;99438.34;5003881;28;129525;-68
2022/04/27 04:07:50;;;;;;;5.70;3.13;;;6.20;1.00;;;7.67;71.75;99447.34;5000943;28;130540;-70
2022/04/27 04:10:19;;;;;;;5.25;2.80;;;6.20;1.00;;;7.67;72.39;99450.03;5004226;28;118363;-70
2022/04/27 04:12:51;;;;;;;6.70;2.83;;;6.10;1.00;;;7.71;72.87;99456.44;5004390;28;119329;-69
2022/04/27 04:15:41;;;;;;;4.68;2.67;;;6.10;1.00;;;7.42;71.93;99464.69;4988167;28;129783;-68
2022/04/27 04:18:45;;;;;;;5.47;2.72;;;6.20;1.00;;;7.53;71.41;99461.56;4995865;28;129472;-70
2022/04/27 04:21:32;;;;;;;3.97;2.35;;;6.30;1.00;;;7.60;69.51;99460.38;5019076;28;120508;-69
2022/04/27 04:24:16;;;;;;;4.28;2.35;;;6.40;1.00;;;7.66;70.29;99464.63;5003113;28;119366;-69
2022/04/27 04:29:35;;;;;;;4.50;2.20;;;6.60;1.00;;;8.30;68.67;99458.75;5003584;28;128469;-67
2022/04/27 04:32:06;;;;;;;4.13;2.20;;;6.80;1.00;;;8.81;66.86;99465.97;5002615;28;119718;-75
2022/04/27 04:34:54;;;;;;;8.95;4.55;;;7.10;1.00;;;8.08;65.71;99465.59;5019001;28;120258;-68
2022/04/27 04:37:22;;;;;;;7.57;3.50;;;7.00;1.00;;;7.67;64.54;99471.66;5003497;28;129575;-73
2022/04/27 04:39:52;;;;;;;12.75;6.18;;;6.90;1.00;;;8.22;64.56;99466.44;5003773;28;128590;-71
2022/04/27 04:42:21;;;;;;;3.50;1.95;;;7.20;1.00;;;8.19;63.00;99472.44;5000838;28;122423;-75
2022/04/27 04:44:49;;;;;;;2.45;1.45;;;7.20;1.00;;;8.04;63.85;99464.56;5002023;27;121819;-71
2022/04/27 04:47:37;;;;;;;;;;;7.20;1.00;;;8.28;63.60;99467.16;5040960;27;131134;-68
2022/04/27 04:50:24;;;;;;;5.18;1.98;;;7.40;1.00;;;8.88;62.04;99466.38;5038715;27;130625;-70
2022/04/27 04:53:20;;;;;;;3.50;1.70;;;7.40;1.00;;;8.16;64.07;99483.84;5017277;27;119443;-73
2022/04/27 04:56:07;;;;;;;3.25;1.50;;;7.40;1.00;;;8.18;64.32;99481.66;5038672;27;119725;-67
2022/04/27 04:58:41;;;;;;;4.13;1.80;;;7.40;1.00;;;8.38;63.41;99480.50;5037143;27;130584;-66
2022/04/27 05:01:22;;;;;;;2.58;1.67;;;7.20;1.00;;;7.99;64.43;99483.56;5038654;27;129507;-68
2022/04/27 05:04:12;;;;;;;3.70;1.67;;;7.30;1.00;;;8.27;63.30;99485.28;5041162;27;119731;-69
2022/04/27 05:07:18;;;;;;;3.10;1.40;;;7.20;1.00;;;7.95;63.15;99494.19;4998172;28;119823;-68
2022/04/27 05:10:18;;;;;;;2.88;1.83;;;7.30;1.00;;;8.23;62.46;99495.09;5004777;27;130038;-66
2022/04/27 05:13:05;;;;;;;5.13;2.45;;;7.40;1.00;;;8.24;61.68;99504.81;5037137;27;129493;-70
2022/04/27 05:15:34;;;;;;;3.25;1.52;;;7.40;1.00;;;7.73;59.15;99494.78;5038398;27;119640;-67
2022/04/27 05:18:35;;;;;;;2.28;1.27;;;7.30;1.00;;;7.52;57.90;99497.75;5017379;27;119681;-69
2022/04/27 05:21:08;;;;;;;1.38;1.00;;;7.10;1.00;;;7.51;57.90;99506.97;5022440;27;129558;-69
2022/04/27 05:23:56;;;;;;;1.63;1.20;;;7.00;1.00;;;7.56;57.96;99498.00;5036401;27;129902;-68
2022/04/27 05:26:48;;;;;;;3.42;1.45;;;7.00;1.00;;;7.54;59.26;99498.28;5035027;27;119820;-69
2022/04/27 05:32:40;;;;;;;2.67;1.50;;;7.00;1.00;;;7.54;58.05;99497.47;5037975;27;130278;-67
2022/04/27 05:35:43;;;;;;;1.33;1.00;;;7.10;1.00;;;7.73;57.55;99498.28;5039610;27;129502;-69
2022/04/27 05:38:33;;;;;;;2.53;1.30;;;7.20;1.00;;;7.86;56.05;99496.72;5028883;27;122493;-69
2022/04/27 05:41:41;;;;;;;1.98;1.20;;;7.30;1.00;;;7.80;57.73;99497.09;5002288;28;121972;-67
2022/04/27 05:44:45;;;;;;;2.13;1.23;;;7.30;1.00;;;7.97;57.53;99518.22;5008945;28;129822;-71
2022/04/27 05:47:20;;;;;;;2.58;1.35;;;7.30;1.00;;;8.35;55.67;99528.97;5017673;28;129578;-68
2022/04/27 05:50:11;;;;;;;2.95;1.15;;;7.40;1.00;;;7.88;57.40;99516.19;5002978;28;120077;-66
2022/04/27 05:53:00;;;;;;;1.33;1.17;;;7.40;1.00;;;8.01;54.71;99513.81;5018084;28;119895;-69
2022/04/27 05:55:54;;;;;;;1.85;1.13;;;7.40;1.00;;;8.09;55.42;99510.47;5018649;27;130329;-69
2022/04/27 05:58:43;;;;;;;1.65;1.00;;;7.60;1.00;;;8.40;55.07;99515.38;5028332;27;129191;-74
2022/04/27 06:01:26;;;;;;;1.48;0.90;;;7.70;1.00;;;8.07;55.31;99501.81;5032096;27;119284;-68
2022/04/27 06:04:02;;;;;;;2.75;0.90;;;7.70;1.00;;;8.19;54.01;99510.28;5026706;27;119444;-71
2022/04/27 06:06:34;;;;;;;1.42;1.00;;;7.70;1.00;;;8.65;55.32;99527.69;5038078;27;129191;-73
2022/04/27 06:09:06;;;;;;;2.25;1.20;;;7.90;1.00;;;8.90;54.29;99523.69;5006059;27;129908;-69
2022/04/27 06:11:49;;;;;;;1.48;0.93;;;8.00;1.00;;;8.69;55.12;99527.88;5016859;27;119809;-69
2022/04/27 06:14:44;;;;;;;1.75;1.23;;;8.10;1.00;;;8.79;54.45;99528.50;5039961;27;119405;-69
2022/04/27 06:17:19;;;;;;;1.75;1.10;;;8.10;1.00;;;8.91;53.17;99528.03;5005780;28;129384;-70
2022/04/27 06:19:48;;;;;;;1.48;1.05;;;8.20;1.00;;;9.24;53.50;99532.50;5005681;28;128992;-72
2022/04/27 06:22:20;;;;;;;2.80;1.10;;;8.20;1.00;;;9.09;54.06;99530.94;4989345;28;118956;-68
2022/04/27 06:24:49;;;;;;;2.80;1.25;;;8.30;1.00;;;9.34;53.19;99527.69;4989537;28;118298;-67
2022/04/27 06:27:38;;;;;;;4.53;1.42;;;8.50;1.00;;;9.61;53.25;99526.06;5020506;28;130381;-72
2022/04/27 06:30:08;;;;;;;1.50;1.00;;;8.70;1.00;;;9.43;53.02;99529.72;5038590;27;129295;-70
2022/04/27 06:32:39;;;;;;;2.20;1.10;;;8.70;1.00;;;9.34;53.48;99527.69;5027767;27;121542;-71
2022/04/27 06:35:13;;;;;;;1.33;1.00;;;8.70;1.00;;;9.57;53.10;99518.84;5046277;27;122243;-68
2022/04/27 06:37:43;;;;;;;2.85;1.30;;;8.80;1.00;;;9.91;52.71;99531.91;5042679;27;129954;-69
2022/04/27 06:40:12;;;;;;;2.63;1.38;;;8.90;1.00;;;10.32;50.57;99532.88;5063949;27;129570;-70
2022/04/27 06:42:45;;;;;;;5.95;2.30;;;9.10;1.00;;;10.83;47.96;99523.47;5029201;27;118797;-69
2022/04/27 06:45:32;;;;;;;2.70;1.25;;;9.30;1.00;;;11.13;47.02;99529.97;5062240;27;119181;-67
2022/04/27 06:48:19;;;;;;;2.88;1.48;;;9.40;1.00;;;11.39;47.26;99537.41;5046131;27;129159;-69
2022/04/27 06:51:06;;;;;;;1.67;1.15;;;9.50;1.00;;;10.57;49.59;99534.16;5061160;27;129913;-69
2022/04/27 06:53:53;;;;;;;;;;;9.30;1.00;;;9.99;53.27;99552.09;5061676;27;119299;-68
2022/04/27 06:56:41;;;;;;;1.90;1.00;;;9.20;1.00;;;10.10;52.60;99561.56;5009635;27;118613;-72
2022/04/27 06:59:26;;;;;;;2.45;1.10;;;9.20;1.00;;;9.84;50.76;99564.06;5020683;27;130155;-69
2022/04/27 07:02:02;;;;;;;1.95;1.10;;;9.20;1.00;;;9.88;50.97;99574.00;5009141;27;128236;-71
2022/04/27 07:04:33;;;;;;;1.40;1.08;;;9.20;1.00;;;9.08;53.75;99583.47;5037228;27;119508;-73
2022/04/27 07:07:02;;;;;;;1.95;1.17;;;8.80;1.00;;;9.39;54.29;99569.34;5002611;28;119458;-68
2022/04/27 07:09:31;;;;;;;2.35;1.45;;;8.80;1.00;;;9.33;54.05;99574.88;5020163;28;130482;-71
2022/04/27 07:12:00;;;;;;;1.42;1.15;;;8.80;1.00;;;9.79;53.71;99566.88;5014337;27;130288;-69
2022/04/27 07:14:30;;;;;;;1.73;1.00;;;9.10;1.00;;;10.14;52.57;99575.31;5020253;28;119401;-69
2022/04/27 07:16:58;;;;;;;2.33;1.20;;;9.20;1.00;;;10.38;49.33;99562.28;5020983;28;119454;-71
2022/04/27 07:19:27;;;;;;;1.40;0.98;;;9.30;1.00;;;10.47;47.52;99588.69;5022156;28;128931;-68
2022/04/27 07:21:55;;;;;;;3.60;1.25;;;9.50;1.00;;;11.03;47.67;99578.31;5019042;28;129543;-68
2022/04/27 07:24:24;;;;;;;1.50;0.90;;;9.60;1.00;;;10.69;46.70;99585.97;5018872;28;121993;-72
2022/04/27 07:26:53;;;;;;;2.53;1.13;;;9.60;1.00;;;10.87;46.97;99586.06;5005154;28;120640;-70
2022/04/27 07:29:22;;;;;;;0.82;0.80;;;9.60;1.00;;;11.22;45.95;99575.34;5031662;27;129753;-68
2022/04/27 07:31:52;;;;;;;3.40;1.70;;;9.80;1.00;;;11.40;46.60;99585.16;5041135;27;129090;-66
2022/04/27 07:34:20;;;;;;;2.08;1.20;;;9.90;1.00;;;11.45;45.88;99592.38;5040322;27;119927;-74
2022/04/27 07:36:49;;;;;;;3.05;1.40;;;9.80;1.00;;;11.24;46.94;99578.56;5039852;27;119397;-69
2022/04/27 07:39:17;;;;;;;1.60;1.10;;;9.80;1.00;;;11.42;45.01;99584.84;5039639;27;130057;-70
2022/04/27 07:41:46;;;;;;;3.63;1.13;;;9.70;1.00;;;11.66;46.04;99582.53;5038937;27;130140;-66
2022/04/27 07:44:14;;;;;;;3.97;1.10;;;9.80;1.00;;;12.03;46.03;99571.44;5039134;27;119754;-68
2022/04/27 07:46:47;;;;;;;2.15;1.27;;;10.20;1.00;;;12.11;45.50;99578.78;5040408;27;119379;-69
2022/04/27 07:49:19;;;;;;;2.65;1.10;;;9.90;1.00;;;12.10;44.69;99576.38;5038288;27;129251;-67
2022/04/27 07:51:47;;;;;;;2.15;1.17;;;10.00;1.00;;;12.33;45.17;99585.19;5022591;27;128953;-69
2022/04/27 07:54:16;;;;;;;2.15;1.15;;;10.30;1.00;;;12.48;44.20;99587.44;5020093;27;119511;-68
2022/04/27 07:56:44;;;;;;;3.67;1.10;;;10.20;1.00;;;12.55;44.54;99587.72;5036963;27;119506;-68
2022/04/27 07:59:12;;;;;;;8.25;1.33;;;10.40;1.00;;;12.31;43.81;99592.84;5032395;27;129953;-69
2022/04/27 08:01:41;;;;;;;1.55;0.90;;;10.10;1.00;;;12.30;45.54;99585.84;5041302;27;129288;-71
2022/04/27 08:04:10;;;;;;;2.10;0.88;;;10.30;1.00;;;12.40;44.77;99589.03;5028139;27;120727;-70
2022/04/27 08:06:40;;;;;;;1.80;1.00;;;10.10;1.00;;;12.50;44.94;99585.16;5019832;28;119450;-66
2022/04/27 08:09:08;;;;;;;3.58;1.05;;;10.30;1.00;;;12.29;45.45;99562.44;5019136;28;129813;-70
2022/04/27 08:11:39;;;;;;;4.05;1.52;;;10.60;1.00;;;12.26;44.81;99593.81;5001189;28;129723;-70
2022/04/27 08:14:08;;;;;;;2.65;1.10;;;10.40;1.00;;;12.10;45.05;99577.19;5023356;27;122629;-69
2022/04/27 08:16:36;;;;;;;2.15;1.15;;;10.20;1.00;;;12.59;45.76;99588.69;5030242;27;122142;-68
2022/04/27 08:19:04;;;;;;;1.98;1.10;;;10.50;1.00;;;12.58;44.95;99576.19;5000936;28;130440;-68
2022/04/27 08:21:32;;;;;;;2.60;1.10;;;10.70;1.00;;;12.56;43.60;99567.56;5018928;28;129436;-69
2022/04/27 08:24:06;;;;;;;2.30;1.50;;;10.40;1.00;;;12.21;44.08;99597.50;5020924;28;121109;-71
2022/04/27 08:26:35;;;;;;;2.30;1.20;;;10.20;1.00;;;12.26;43.99;99584.88;5019082;28;119615;-69
2022/04/27 08:29:03;;;;;;;1.83;1.00;;;10.20;1.00;;;12.30;44.23;99594.00;5019116;28;130056;-75
2022/04/27 08:31:32;;;;;;;3.08;1.27;;;10.40;1.00;;;12.27;43.58;99592.72;5004384;28;129084;-68
2022/04/27 08:34:00;;;;;;;2.33;1.10;;;10.40;1.00;;;12.48;41.75;99595.59;5024917;27;119595;-69
2022/04/27 08:36:29;;;;;;;2.90;1.40;;;10.50;1.00;;;12.82;42.99;99584.94;5018064;27;118913;-71
2022/04/27 08:38:57;;;;;;;2.97;1.40;;;10.90;1.00;;;12.72;41.39;99594.28;5034036;27;130226;-69
2022/04/27 08:41:28;;;;;;;3.80;1.50;;;10.70;1.00;;;12.40;40.12;99585.50;5028497;27;130933;-71
2022/04/27 08:43:57;;;;;;;3.22;1.05;;;10.60;1.00;;;12.16;37.87;99592.22;5039217;27;119903;-75
2022/04/27 08:46:27;;;;;;;2.80;1.20;;;10.50;1.00;;;11.98;36.94;99596.88;5041927;27;120235;-77
2022/04/27 08:48:55;;;;;;;1.88;1.13;;;10.30;1.00;;;12.27;37.22;99600.06;5023539;27;130474;-74
2022/04/27 08:51:24;;;;;;;1.95;1.10;;;10.60;1.00;;;12.26;37.17;99598.47;5023751;27;129215;-79
2022/04/27 08:53:53;;;;;;;1.60;1.13;;;10.70;1.00;;;12.62;37.35;99597.31;5038964;27;119983;-75
2022/04/27 08:56:23;;;;;;;4.78;1.50;;;11.10;1.00;;;12.66;36.08;99603.72;5039047;27;119308;-72
2022/04/27 08:58:53;;;;;;;3.65;1.75;;;10.60;1.00;;;12.58;35.86;99602.63;5040368;27;130329;-70
2022/04/27 09:01:22;;;;;;;2.70;1.00;;;10.70;1.00;;;12.88;36.46;99600.00;5041344;27;130442;-70
2022/04/27 09:03:51;;;;;;;4.88;1.30;;;11.00;1.00;;;13.19;32.48;99605.19;5037755;27;121839;-68
2022/04/27 09:06:20;;;;;;;3.63;1.45;;;11.30;1.00;;;12.92;32.08;99607.19;5020480;27;122089;-71
2022/04/27 09:08:50;;;;;;;4.03;0.95;;;11.40;1.00;;;12.29;33.82;99600.53;5035156;27;130057;-70
2022/04/27 09:11:20;;;;;;;3.55;0.90;;;11.20;1.00;;;12.56;33.46;99613.81;5038026;27;130361;-71
2022/04/27 09:13:53;;;;;;;1.55;1.00;;;11.00;1.00;;;12.41;32.61;99608.88;5038709;27;119526;-67
2022/04/27 09:16:24;;;;;;;3.38;1.20;;;10.90;1.00;;;12.02;33.59;99602.47;5023641;27;119333;-70
2022/04/27 09:22:03;;;;;;;4.13;1.15;;;10.90;1.00;;;12.14;34.31;99610.78;5040751;27;128456;-70
2022/04/27 09:24:48;;;;;;;3.75;1.30;;;11.00;1.00;;;12.25;33.92;99616.72;5037050;27;119528;-73
2022/04/27 09:27:19;;;;;;;3.25;1.65;;;10.80;1.00;;;12.59;33.27;99605.03;5023281;27;118546;-72
2022/04/27 09:30:01;;;;;;;1.83;1.15;;;10.70;1.00;;;12.92;31.24;99595.50;5036808;27;130431;-69
2022/04/27 09:32:30;;;;;;;3.08;1.25;;;11.10;1.00;;;13.31;32.35;99608.03;5038004;27;129607;-69
2022/04/27 09:35:00;;;;;;;2.42;1.30;;;11.40;1.00;;;12.65;32.68;99591.22;5038302;27;120045;-70
2022/04/27 09:37:30;;;;;;;4.60;1.63;;;11.50;1.00;;;13.31;32.79;99618.13;5037738;27;120204;-70
2022/04/27 09:40:05;;;;;;;3.47;1.45;;;11.60;1.00;;;12.95;32.21;99612.00;5022631;27;129580;-70
2022/04/27 09:42:35;;;;;;;7.03;1.58;;;11.50;1.00;;;12.48;34.02;99611.09;5019691;27;129566;-74
2022/04/27 09:45:18;;;;;;;5.35;1.75;;;11.20;1.00;;;12.91;33.55;99615.69;5037839;27;119867;-72
2022/04/27 09:47:48;;;;;;;4.32;1.80;;;11.30;1.00;;;13.27;34.50;99606.28;5023255;27;118182;-72
2022/04/27 09:50:18;;;;;;;3.78;1.58;;;11.60;1.00;;;12.71;33.78;99609.00;5037841;27;130159;-72
2022/04/27 09:52:46;;;;;;;4.25;1.55;;;11.50;1.00;;;13.30;32.55;99598.25;5023200;27;128738;-70
2022/04/27 09:55:15;;;;;;;2.15;1.50;;;11.70;1.00;;;12.80;34.05;99598.88;5036544;27;122158;-73
2022/04/27 09:57:43;;;;;;;2.50;1.38;;;11.60;1.00;;;12.93;35.21;99614.25;5038012;27;122183;-70
2022/04/27 10:00:14;;;;;;;3.13;1.25;;;11.80;1.00;;;13.12;31.77;99602.19;5022669;27;129349;-75
2022/04/27 10:02:46;;;;;;;5.07;1.27;;;11.40;1.00;;;12.75;32.03;99601.78;5037786;27;129874;-74
2022/04/27 10:05:15;;;;;;;3.53;1.40;;;11.30;1.00;;;12.64;32.56;99612.22;5037986;27;120120;-69
2022/04/27 10:07:44;;;;;;;2.90;0.98;;;11.10;1.00;;;12.30;32.53;99615.75;5038216;27;119806;-74
2022/04/27 10:10:17;;;;;;;1.85;1.10;;;11.10;1.00;;;11.51;33.89;99600.09;5030577;27;129965;-71
2022/04/27 10:12:46;;;;;;;2.45;1.13;;;11.00;1.00;;;12.72;34.42;99607.88;5006243;28;128563;-70
2022/04/27 10:15:14;;;;;;;3.20;1.40;;;11.50;1.00;;;12.70;32.66;99621.00;5002801;28;119840;-71
2022/04/27 10:17:44;;;;;;;3.30;1.40;;;11.60;1.00;;;13.22;32.79;99620.09;5017676;28;119464;-72
2022/04/27 10:20:30;;;;;;;3.40;1.23;;;11.80;1.00;;;12.95;31.65;99624.81;5016070;28;130979;-69
2022/04/27 10:23:28;;;;;;;3.35;1.65;;;11.30;1.00;;;12.93;32.45;99618.88;5017054;28;129930;-70
2022/04/27 10:26:11;;;;;;;2.97;1.40;;;11.60;1.00;;;13.03;32.41;99650.44;4973729;28;119882;-71
2022/04/27 10:28:46;;;;;;;3.15;1.40;;;11.40;1.00;;;12.85;33.10;99631.41;5017414;28;120070;-68
2022/04/27 10:31:14;;;;;;;3.33;1.40;;;11.40;1.00;;;13.22;33.26;99620.88;5017284;28;130677;-70
2022/04/27 10:33:51;;;;;;;5.47;1.13;;;11.30;1.00;;;12.78;33.36;99628.38;5017180;28;129282;-72
2022/04/27 10:36:41;;;;;;;3.35;1.10;;;11.50;1.00;;;12.27;35.05;99619.91;5017558;28;120179;-75
2022/04/27 10:39:26;;;;;;;3.95;1.40;;;11.40;1.00;;;12.82;34.12;99626.59;5017809;28;119765;-68
2022/04/27 10:42:33;;;;;;;3.75;1.10;;;11.70;1.00;;;12.75;34.23;99629.03;5016937;28;130026;-74
2022/04/27 10:45:09;;;;;;;2.05;1.10;;;10.90;1.00;;;13.26;34.80;99624.56;4981537;28;129261;-71
2022/04/27 10:47:43;;;;;;;1.95;1.33;;;11.50;1.00;;;13.58;33.79;99616.91;4995983;28;121869;-72
2022/04/27 10:50:26;;;;;;;3.22;1.50;;;11.70;1.00;;;13.31;33.17;99657.09;4997465;28;121747;-71
2022/04/27 10:52:56;;;;;;;3.50;1.50;;;11.30;1.00;;;13.65;33.67;99633.56;5000188;28;130462;-69
2022/04/27 10:55:51;;;;;;;2.25;1.35;;;11.40;1.00;;;13.58;33.66;99638.72;5001632;28;129525;-73
2022/04/27 10:58:32;;;;;;;2.72;1.25;;;11.50;1.00;;;13.60;33.30;99649.31;5020492;28;119481;-70
2022/04/27 11:01:27;;;;;;;2.85;1.48;;;11.80;1.00;;;13.71;32.97;99633.38;5022482;28;118907;-72
2022/04/27 11:04:12;;;;;;;3.95;1.73;;;11.80;1.00;;;13.58;32.63;99619.63;4988880;28;128791;-72
2022/04/27 11:07:25;;;;;;;3.47;1.40;;;11.60;1.00;;;13.34;32.62;99633.06;5022289;28;129284;-67
2022/04/27 11:10:14;;;;;;;2.60;1.17;;;11.50;1.00;;;13.26;33.92;99626.47;5020663;28;120187;-68
2022/04/27 11:12:46;;;;;;;3.10;1.42;;;11.50;1.00;;;13.15;34.76;99630.69;5020723;28;119452;-77